createdAt,value
2018-03-24T00:00:35.452Z,86.05
2018-03-24T00:03:03.658Z,85.85
2018-03-24T00:05:31.202Z,86.62
2018-03-24T00:08:00.282Z,86.73
2018-03-24T00:10:28.082Z,87.49
2018-03-24T00:12:55.860Z,86.77
2018-03-24T00:15:23.522Z,87.15
2018-03-24T00:17:51.048Z,86.25
2018-03-24T00:20:18.741Z,86.23
2018-03-24T00:22:46.511Z,86.42
2018-03-24T00:25:14.100Z,86.32
2018-03-24T00:27:41.832Z,85.99
2018-03-24T00:30:09.524Z,85.68
2018-03-24T00:32:37.039Z,86.40
2018-03-24T00:35:04.649Z,86.13
2018-03-24T00:37:32.442Z,86.04
2018-03-24T00:40:01.365Z,87.04
2018-03-24T00:42:29.912Z,85.85
2018-03-24T00:44:58.579Z,85.92
2018-03-24T00:47:27.300Z,85.61
2018-03-24T00:49:54.891Z,86.17
2018-03-24T00:52:23.236Z,85.70
2018-03-24T00:54:51.022Z,85.88
2018-03-24T00:57:18.836Z,86.38
2018-03-24T00:59:46.368Z,86.04
2018-03-24T01:02:14.031Z,86.49
2018-03-24T01:04:41.547Z,86.73
2018-03-24T01:07:09.148Z,87.85
2018-03-24T01:09:36.812Z,87.24
2018-03-24T01:12:04.770Z,86.06
2018-03-24T01:14:32.388Z,85.55
2018-03-24T01:17:00.023Z,85.66
2018-03-24T01:19:27.976Z,85.19
2018-03-24T01:21:55.556Z,85.73
2018-03-24T01:24:23.075Z,85.78
2018-03-24T01:26:50.623Z,85.50
2018-03-24T01:29:18.135Z,87.38
2018-03-24T01:31:45.680Z,87.05
2018-03-24T01:34:13.204Z,88.00
2018-03-24T01:36:40.771Z,86.54
2018-03-24T01:39:08.288Z,86.00
2018-03-24T01:41:35.844Z,87.11
2018-03-24T01:44:03.372Z,86.78
2018-03-24T01:46:30.919Z,86.64
2018-03-24T01:48:58.444Z,86.56
2018-03-24T01:51:25.994Z,86.28
2018-03-24T01:53:53.534Z,88.54
2018-03-24T01:56:21.106Z,88.13
2018-03-24T01:58:48.625Z,88.80
2018-03-24T02:01:16.173Z,87.66
2018-03-24T02:03:44.524Z,87.18
2018-03-24T02:06:12.066Z,87.23
2018-03-24T02:08:39.620Z,87.76
2018-03-24T02:11:07.147Z,87.98
2018-03-24T02:13:35.041Z,86.73
2018-03-24T02:16:02.555Z,86.57
2018-03-24T02:18:30.103Z,86.81
2018-03-24T02:21:03.284Z,86.95
2018-03-24T02:23:30.939Z,88.42
2018-03-24T02:25:58.453Z,89.27
2018-03-24T02:28:26.004Z,88.49
2018-03-24T02:30:53.525Z,87.35
2018-03-24T02:33:21.081Z,87.13
2018-03-24T02:35:48.614Z,86.57
2018-03-24T02:38:16.164Z,87.01
2018-03-24T02:40:43.694Z,86.31
2018-03-24T02:43:11.262Z,86.11
2018-03-24T02:45:38.808Z,86.58
2018-03-24T02:48:06.381Z,88.23
2018-03-24T02:50:33.909Z,88.00
2018-03-24T02:53:01.547Z,88.71
2018-03-24T02:55:29.088Z,88.40
2018-03-24T02:57:56.643Z,87.49
2018-03-24T03:00:24.164Z,87.48
2018-03-24T03:02:51.720Z,87.10
2018-03-24T03:05:19.243Z,87.33
2018-03-24T03:07:46.902Z,86.89
2018-03-24T03:10:14.431Z,86.95
2018-03-24T03:12:41.996Z,87.21
2018-03-24T03:15:09.580Z,86.92
2018-03-24T03:17:37.136Z,88.19
2018-03-24T03:20:05.248Z,87.36
2018-03-24T03:22:32.808Z,87.27
2018-03-24T03:25:00.348Z,87.19
2018-03-24T03:27:27.897Z,86.87
2018-03-24T03:29:55.445Z,86.74
2018-03-24T03:32:23.319Z,87.13
2018-03-24T03:34:50.854Z,88.55
2018-03-24T03:37:18.379Z,87.29
2018-03-24T03:39:45.941Z,87.14
2018-03-24T03:42:13.466Z,86.88
2018-03-24T03:44:41.035Z,87.44
2018-03-24T03:47:08.560Z,86.87
2018-03-24T03:49:36.147Z,86.15
2018-03-24T03:52:03.786Z,85.33
2018-03-24T03:54:31.345Z,85.20
2018-03-24T03:56:58.865Z,85.60
2018-03-24T03:59:26.451Z,84.91
2018-03-24T04:01:53.975Z,85.03
2018-03-24T04:04:21.521Z,85.67
2018-03-24T04:06:49.051Z,85.52
2018-03-24T04:09:16.622Z,85.39
2018-03-24T04:11:44.143Z,85.16
2018-03-24T04:14:11.710Z,85.13
2018-03-24T04:16:39.236Z,85.27
2018-03-24T04:19:06.791Z,85.15
2018-03-24T04:21:35.368Z,85.63
2018-03-24T04:24:02.932Z,85.90
2018-03-24T04:26:30.556Z,86.41
2018-03-24T04:28:58.052Z,88.95
2018-03-24T04:31:25.572Z,89.81
2018-03-24T04:33:53.119Z,89.10
2018-03-24T04:36:20.634Z,88.15
2018-03-24T04:38:48.185Z,88.29
2018-03-24T04:41:15.737Z,89.56
2018-03-24T04:43:43.293Z,89.76
2018-03-24T04:46:10.827Z,89.46
2018-03-24T04:48:38.391Z,89.24
2018-03-24T04:51:05.922Z,87.97
2018-03-24T04:53:33.488Z,87.80
2018-03-24T04:56:01.029Z,87.86
2018-03-24T04:58:28.601Z,88.42
2018-03-24T05:00:56.123Z,89.08
2018-03-24T05:03:23.678Z,87.80
2018-03-24T05:05:51.214Z,88.60
2018-03-24T05:08:18.766Z,88.52
2018-03-24T05:10:46.332Z,88.25
2018-03-24T05:13:13.848Z,87.34
2018-03-24T05:15:41.439Z,87.18
2018-03-24T05:18:08.960Z,87.30
2018-03-24T05:20:36.519Z,87.21
2018-03-24T05:23:04.039Z,86.81
2018-03-24T05:25:31.591Z,86.70
2018-03-24T05:27:59.102Z,87.75
2018-03-24T05:30:26.668Z,88.44
2018-03-24T05:32:54.205Z,87.82
2018-03-24T05:35:21.759Z,88.03
2018-03-24T05:37:49.284Z,87.98
2018-03-24T05:40:16.859Z,88.55
2018-03-24T05:42:44.374Z,87.61
2018-03-24T05:45:11.944Z,87.66
2018-03-24T05:47:39.468Z,86.98
2018-03-24T05:50:07.025Z,86.63
2018-03-24T05:52:34.538Z,86.11
2018-03-24T05:55:02.099Z,86.46
2018-03-24T05:57:29.627Z,86.23
2018-03-24T05:59:57.179Z,86.28
2018-03-24T06:02:24.711Z,86.08
2018-03-24T06:04:52.269Z,86.14
2018-03-24T06:07:19.791Z,86.39
2018-03-24T06:09:47.352Z,86.91
2018-03-24T06:12:14.869Z,87.18
2018-03-24T06:14:42.443Z,87.49
2018-03-24T06:17:09.980Z,86.79
2018-03-24T06:19:37.531Z,86.25
2018-03-24T06:22:06.031Z,86.08
2018-03-24T06:24:33.594Z,86.31
2018-03-24T06:27:01.136Z,86.13
2018-03-24T06:29:28.699Z,86.60
2018-03-24T06:31:58.569Z,86.92
2018-03-24T06:34:26.137Z,86.91
2018-03-24T06:36:59.119Z,86.48
2018-03-24T06:39:26.689Z,87.02
2018-03-24T06:41:54.207Z,87.11
2018-03-24T06:44:21.779Z,87.25
2018-03-24T06:46:49.303Z,87.36
2018-03-24T06:49:16.860Z,86.92
2018-03-24T06:51:44.411Z,86.81
2018-03-24T06:54:11.980Z,87.13
2018-03-24T06:56:39.536Z,86.58
2018-03-24T06:59:07.067Z,86.89
2018-03-24T07:01:34.658Z,87.50
2018-03-24T07:04:02.183Z,89.31
2018-03-24T07:06:29.735Z,88.59
2018-03-24T07:08:57.308Z,88.32
2018-03-24T07:11:24.863Z,89.16
2018-03-24T07:13:52.402Z,88.29
2018-03-24T07:16:19.988Z,89.59
2018-03-24T07:18:47.625Z,89.42
2018-03-24T07:21:19.367Z,89.76
2018-03-24T07:23:47.710Z,88.50
2018-03-24T07:26:15.343Z,87.54
2018-03-24T07:28:45.066Z,88.28
2018-03-24T07:31:12.720Z,88.00
2018-03-24T07:33:40.240Z,87.64
2018-03-24T07:36:07.820Z,87.81
2018-03-24T07:38:36.171Z,87.14
2018-03-24T07:41:03.724Z,86.93
2018-03-24T07:43:31.259Z,86.69
2018-03-24T07:46:01.684Z,88.28
2018-03-24T07:48:30.968Z,87.33
2018-03-24T07:50:58.517Z,87.17
2018-03-24T07:53:26.089Z,86.23
2018-03-24T07:55:54.132Z,86.90
2018-03-24T07:58:21.706Z,86.36
2018-03-24T08:00:49.613Z,86.04
2018-03-24T08:03:17.192Z,85.80
2018-03-24T08:05:44.715Z,85.68
2018-03-24T08:08:13.117Z,85.16
2018-03-24T08:10:49.295Z,85.68
2018-03-24T08:13:17.673Z,85.34
2018-03-24T08:15:45.203Z,84.29
2018-03-24T08:18:12.784Z,85.09
2018-03-24T08:20:40.295Z,84.71
2018-03-24T08:23:07.841Z,84.85
2018-03-24T08:25:36.330Z,83.79
2018-03-24T08:28:03.879Z,83.43
2018-03-24T08:30:31.394Z,83.43
2018-03-24T08:32:58.964Z,82.99
2018-03-24T08:35:26.499Z,82.76
2018-03-24T08:37:54.044Z,82.29
2018-03-24T08:40:21.578Z,82.22
2018-03-24T08:42:49.135Z,81.91
2018-03-24T08:45:17.663Z,81.16
2018-03-24T08:47:45.223Z,81.48
2018-03-24T08:50:12.757Z,80.69
2018-03-24T08:52:41.347Z,80.05
2018-03-24T08:55:08.993Z,80.24
2018-03-24T08:57:36.563Z,79.48
2018-03-24T09:00:04.104Z,78.90
2018-03-24T09:02:31.675Z,79.12
2018-03-24T09:04:59.223Z,77.83
2018-03-24T09:07:26.801Z,78.31
2018-03-24T09:09:54.328Z,77.93
2018-03-24T09:12:21.877Z,77.83
2018-03-24T09:14:52.911Z,78.35
2018-03-24T09:17:20.718Z,77.86
2018-03-24T09:19:48.986Z,78.35
2018-03-24T09:22:16.569Z,77.49
2018-03-24T09:24:44.077Z,77.57
2018-03-24T09:27:12.395Z,77.72
2018-03-24T09:29:40.159Z,76.87
2018-03-24T09:32:07.716Z,76.83
2018-03-24T09:34:35.922Z,76.37
2018-03-24T09:37:06.132Z,76.26
2018-03-24T09:39:44.704Z,76.48
2018-03-24T09:42:15.779Z,74.24
2018-03-24T09:44:54.060Z,73.99
2018-03-24T09:47:21.872Z,73.31
2018-03-24T09:49:49.416Z,72.83
2018-03-24T09:52:17.066Z,72.33
2018-03-24T09:54:44.603Z,72.84
2018-03-24T09:57:12.184Z,73.15
2018-03-24T09:59:39.720Z,71.85
2018-03-24T10:02:07.268Z,71.77
2018-03-24T10:04:34.791Z,70.22
2018-03-24T10:07:02.351Z,70.29
2018-03-24T10:09:29.878Z,68.54
2018-03-24T10:11:57.437Z,70.74
2018-03-24T10:14:24.992Z,68.54
2018-03-24T10:16:52.520Z,71.04
2018-03-24T10:19:20.091Z,70.10
2018-03-24T10:24:46.466Z,67.41
2018-03-24T10:27:14.308Z,68.43
2018-03-24T10:29:41.854Z,68.25
2018-03-24T10:32:09.401Z,68.55
2018-03-24T10:34:37.246Z,68.50
2018-03-24T10:37:04.845Z,65.23
2018-03-24T10:39:32.415Z,66.68
2018-03-24T10:41:59.939Z,66.47
2018-03-24T10:44:27.486Z,67.21
2018-03-24T10:46:55.028Z,66.52
2018-03-24T10:49:22.674Z,64.47
2018-03-24T10:51:50.216Z,65.70
2018-03-24T10:54:17.778Z,65.37
2018-03-24T10:56:45.311Z,64.93
2018-03-24T10:59:12.874Z,64.75
2018-03-24T11:01:40.442Z,65.42
2018-03-24T11:04:08.016Z,64.11
2018-03-24T11:06:35.547Z,65.06
2018-03-24T11:09:03.100Z,65.61
2018-03-24T11:11:30.624Z,64.60
2018-03-24T11:13:58.184Z,64.25
2018-03-24T11:16:25.903Z,63.82
2018-03-24T11:18:54.065Z,62.88
2018-03-24T11:21:22.066Z,62.82
2018-03-24T11:23:51.517Z,63.37
2018-03-24T11:26:19.080Z,62.71
2018-03-24T11:28:46.677Z,61.78
2018-03-24T11:31:14.214Z,59.14
2018-03-24T11:33:41.788Z,58.77
2018-03-24T11:36:09.320Z,58.73
2018-03-24T11:38:37.083Z,60.03
2018-03-24T11:41:04.619Z,60.38
2018-03-24T11:43:32.143Z,58.89
2018-03-24T11:45:59.697Z,58.54
2018-03-24T11:48:27.221Z,59.71
2018-03-24T11:50:57.290Z,58.71
2018-03-24T11:53:36.865Z,57.55
2018-03-24T11:56:08.072Z,58.48
2018-03-24T11:58:35.763Z,55.57
2018-03-24T12:01:03.316Z,55.54
2018-03-24T12:03:30.852Z,55.56
2018-03-24T12:05:58.535Z,56.04
2018-03-24T12:08:26.056Z,54.15
2018-03-24T12:10:53.622Z,53.43
2018-03-24T12:13:21.151Z,52.98
2018-03-24T12:15:48.713Z,54.04
2018-03-24T12:18:16.405Z,51.83
2018-03-24T12:20:44.245Z,53.39
2018-03-24T12:23:13.470Z,53.25
2018-03-24T12:25:41.388Z,51.99
2018-03-24T12:28:09.461Z,50.63
2018-03-24T12:30:37.762Z,51.49
2018-03-24T12:33:05.822Z,52.37
2018-03-24T12:35:34.490Z,51.66
2018-03-24T12:38:02.470Z,51.55
2018-03-24T12:40:31.291Z,50.33
2018-03-24T12:43:02.156Z,51.03
2018-03-24T12:45:29.735Z,49.30
2018-03-24T12:47:57.497Z,49.78
2018-03-24T12:50:25.057Z,50.17
2018-03-24T12:52:52.615Z,50.00
2018-03-24T12:55:20.331Z,49.61
2018-03-24T12:57:47.868Z,49.07
2018-03-24T13:00:15.435Z,48.68
2018-03-24T13:02:43.076Z,47.78
2018-03-24T13:05:10.695Z,48.95
2018-03-24T13:07:38.248Z,46.73
2018-03-24T13:10:05.962Z,45.96
2018-03-24T13:12:33.556Z,46.57
2018-03-24T13:15:01.127Z,45.09
2018-03-24T13:17:28.729Z,47.54
2018-03-24T13:19:56.276Z,46.18
2018-03-24T13:22:23.829Z,46.92
2018-03-24T13:24:51.403Z,44.31
2018-03-24T13:27:18.963Z,45.78
2018-03-24T13:29:46.991Z,44.97
2018-03-24T13:32:14.603Z,44.72
2018-03-24T13:34:42.527Z,43.04
2018-03-24T13:37:13.495Z,41.68
2018-03-24T13:39:41.257Z,42.73
2018-03-24T13:42:08.824Z,42.91
2018-03-24T13:44:36.351Z,42.39
2018-03-24T13:47:03.913Z,42.71
2018-03-24T13:49:32.098Z,43.66
2018-03-24T13:51:59.789Z,41.62
2018-03-24T13:54:27.315Z,42.79
2018-03-24T13:56:55.413Z,42.54
2018-03-24T13:59:23.323Z,41.99
2018-03-24T14:01:50.945Z,43.02
2018-03-24T14:04:18.471Z,41.99
2018-03-24T14:06:46.054Z,43.89
2018-03-24T14:09:15.452Z,42.92
2018-03-24T14:11:43.167Z,43.74
2018-03-24T14:14:12.335Z,42.78
2018-03-24T14:16:39.925Z,43.56
2018-03-24T14:19:07.851Z,43.60
2018-03-24T14:21:36.006Z,45.16
2018-03-24T14:24:03.627Z,43.92
2018-03-24T14:26:31.183Z,44.37
2018-03-24T14:28:58.726Z,45.76
2018-03-24T14:31:31.066Z,44.29
2018-03-24T14:33:58.668Z,45.11
2018-03-24T14:36:26.313Z,44.31
2018-03-24T14:38:55.317Z,43.11
2018-03-24T14:41:22.963Z,42.95
2018-03-24T14:43:50.564Z,47.22
2018-03-24T14:46:18.135Z,41.43
2018-03-24T14:48:45.707Z,41.93
2018-03-24T14:51:13.426Z,43.44
2018-03-24T14:53:40.974Z,43.63
2018-03-24T14:56:08.528Z,42.93
2018-03-24T14:58:36.051Z,43.58
2018-03-24T15:01:03.616Z,44.29
2018-03-24T15:03:31.160Z,43.63
2018-03-24T15:05:58.757Z,42.93
2018-03-24T15:08:26.311Z,42.33
2018-03-24T15:10:54.011Z,40.78
2018-03-24T15:13:21.545Z,39.47
2018-03-24T15:15:49.115Z,40.86
2018-03-24T15:18:16.938Z,40.22
2018-03-24T15:20:44.523Z,40.05
2018-03-24T15:23:12.195Z,38.21
2018-03-24T15:25:39.879Z,39.02
2018-03-24T15:28:07.499Z,38.61
2018-03-24T15:30:46.881Z,40.01
2018-03-24T15:33:26.125Z,36.55
2018-03-24T15:36:05.752Z,37.93
2018-03-24T15:38:33.267Z,37.22
2018-03-24T15:41:00.841Z,38.64
2018-03-24T15:43:28.407Z,38.43
2018-03-24T15:45:56.023Z,37.82
2018-03-24T15:48:23.577Z,37.87
2018-03-24T15:50:51.588Z,36.31
2018-03-24T15:53:19.304Z,37.80
2018-03-24T15:55:46.863Z,36.59
2018-03-24T15:58:14.428Z,36.66
2018-03-24T16:00:41.960Z,37.26
2018-03-24T16:03:09.937Z,36.85
2018-03-24T16:05:37.515Z,37.11
2018-03-24T16:08:05.331Z,37.30
2018-03-24T16:10:32.888Z,36.35
2018-03-24T16:13:00.471Z,36.90
2018-03-24T16:15:27.988Z,37.72
2018-03-24T16:17:57.348Z,36.43
2018-03-24T16:20:25.582Z,38.06
2018-03-24T16:22:53.148Z,37.74
2018-03-24T16:25:20.898Z,37.82
2018-03-24T16:27:48.463Z,39.26
2018-03-24T16:30:15.985Z,39.69
2018-03-24T16:32:43.692Z,39.91
2018-03-24T16:35:11.216Z,39.61
2018-03-24T16:37:38.770Z,39.23
2018-03-24T16:40:06.313Z,41.28
2018-03-24T16:42:33.891Z,40.38
2018-03-24T16:45:01.423Z,40.76
2018-03-24T16:47:28.976Z,41.60
2018-03-24T16:49:56.504Z,41.77
2018-03-24T16:52:24.083Z,42.46
2018-03-24T16:54:51.610Z,43.27
2018-03-24T16:57:19.134Z,41.00
2018-03-24T16:59:46.716Z,42.22
2018-03-24T17:02:15.164Z,42.50
2018-03-24T17:04:42.728Z,42.85
2018-03-24T17:07:10.272Z,43.62
2018-03-24T17:09:37.836Z,44.07
2018-03-24T17:12:05.371Z,43.47
2018-03-24T17:14:32.932Z,44.59
2018-03-24T17:17:00.448Z,45.10
2018-03-24T17:19:28.032Z,45.20
2018-03-24T17:21:55.555Z,45.21
2018-03-24T17:24:23.133Z,45.56
2018-03-24T17:26:53.001Z,45.67
2018-03-24T17:29:23.136Z,45.59
2018-03-24T17:31:52.070Z,46.51
2018-03-24T17:34:21.239Z,47.18
2018-03-24T17:36:49.796Z,46.58
2018-03-24T17:39:17.360Z,47.16
2018-03-24T17:41:47.380Z,46.63
2018-03-24T17:44:15.968Z,47.10
2018-03-24T17:46:46.180Z,47.88
2018-03-24T17:49:15.760Z,47.95
2018-03-24T17:51:43.284Z,47.87
2018-03-24T17:54:13.482Z,48.18
2018-03-24T17:56:41.779Z,48.50
2018-03-24T17:59:10.665Z,48.74
2018-03-24T18:01:40.620Z,48.41
2018-03-24T18:04:08.287Z,49.14
2018-03-24T18:06:39.994Z,49.37
2018-03-24T18:09:08.076Z,49.24
2018-03-24T18:11:35.631Z,49.42
2018-03-24T18:14:07.548Z,49.63
2018-03-24T18:16:38.582Z,49.77
2018-03-24T18:19:11.922Z,50.25
2018-03-24T18:21:42.341Z,50.11
2018-03-24T18:24:10.557Z,50.87
2018-03-24T18:26:42.662Z,50.99
2018-03-24T18:29:11.038Z,51.76
2018-03-24T18:31:40.412Z,51.96
2018-03-24T18:34:11.141Z,52.31
2018-03-24T18:36:39.376Z,52.79
2018-03-24T18:39:11.615Z,52.36
2018-03-24T18:41:41.706Z,52.44
2018-03-24T18:44:10.047Z,52.71
2018-03-24T18:46:38.627Z,52.83
2018-03-24T18:49:06.192Z,53.04
2018-03-24T18:51:36.951Z,53.36
2018-03-24T18:54:07.971Z,53.93
2018-03-24T18:56:35.719Z,53.79
2018-03-24T18:59:07.178Z,54.26
2018-03-24T19:01:35.427Z,54.82
2018-03-24T19:04:05.975Z,55.30
2018-03-24T19:06:34.342Z,55.53
2018-03-24T19:09:03.706Z,55.48
2018-03-24T19:11:32.445Z,56.00
2018-03-24T19:14:01.594Z,56.70
2018-03-24T19:16:29.206Z,56.64
2018-03-24T19:19:00.671Z,56.98
2018-03-24T19:21:31.199Z,57.65
2018-03-24T19:24:01.064Z,57.49
2018-03-24T19:26:31.797Z,58.02
2018-03-24T19:28:59.597Z,58.72
2018-03-24T19:31:28.953Z,59.04
2018-03-24T19:34:02.165Z,59.24
2018-03-24T19:36:30.927Z,58.72
2018-03-24T19:38:59.557Z,58.77
2018-03-24T19:41:27.102Z,59.01
2018-03-24T19:43:54.639Z,59.35
2018-03-24T19:46:24.362Z,59.11
2018-03-24T19:48:51.893Z,59.28
2018-03-24T19:51:19.444Z,59.63
2018-03-24T19:53:46.964Z,59.98
2018-03-24T19:56:14.535Z,60.41
2018-03-24T19:58:42.051Z,61.22
2018-03-24T20:01:09.609Z,61.48
2018-03-24T20:03:37.370Z,62.29
2018-03-24T20:06:06.204Z,62.40
2018-03-24T20:08:33.737Z,62.26
2018-03-24T20:11:01.448Z,62.69
2018-03-24T20:13:29.362Z,62.16
2018-03-24T20:15:57.152Z,62.33
2018-03-24T20:18:25.722Z,62.68
2018-03-24T20:20:53.435Z,63.10
2018-03-24T20:23:22.716Z,63.55
2018-03-24T20:25:50.275Z,65.22
2018-03-24T20:28:17.792Z,66.09
2018-03-24T20:30:45.352Z,66.93
2018-03-24T20:33:12.904Z,65.72
2018-03-24T20:35:40.451Z,65.08
2018-03-24T20:38:11.276Z,64.63
2018-03-24T20:40:39.016Z,64.92
2018-03-24T20:43:06.565Z,65.18
2018-03-24T20:45:34.170Z,64.96
2018-03-24T20:48:04.437Z,65.14
2018-03-24T20:50:32.197Z,64.83
2018-03-24T20:52:59.733Z,65.10
2018-03-24T20:55:27.399Z,65.73
2018-03-24T20:57:57.282Z,65.54
2018-03-24T21:00:25.079Z,65.16
2018-03-24T21:02:52.611Z,65.57
2018-03-24T21:05:20.186Z,65.79
2018-03-24T21:07:47.763Z,66.38
2018-03-24T21:10:31.004Z,65.61
2018-03-24T21:13:01.268Z,65.74
2018-03-24T21:15:30.862Z,65.47
2018-03-24T21:18:13.778Z,65.56
2018-03-24T21:20:41.333Z,65.89
2018-03-24T21:23:08.901Z,66.47
2018-03-24T21:25:36.449Z,65.96
2018-03-24T21:28:03.985Z,66.26
2018-03-24T21:30:31.559Z,66.87
2018-03-24T21:32:59.283Z,67.47
2018-03-24T21:35:26.842Z,67.14
2018-03-24T21:37:54.408Z,68.06
2018-03-24T21:40:21.964Z,67.99
2018-03-24T21:42:49.499Z,67.50
2018-03-24T21:45:17.192Z,67.14
2018-03-24T21:47:44.759Z,66.96
2018-03-24T21:50:12.347Z,66.93
2018-03-24T21:52:40.067Z,67.30
2018-03-24T21:55:07.906Z,67.46
2018-03-24T21:57:36.103Z,67.38
2018-03-24T22:00:03.688Z,67.37
2018-03-24T22:02:31.251Z,67.49
2018-03-24T22:04:59.797Z,67.73
2018-03-24T22:07:27.352Z,68.07
2018-03-24T22:09:55.230Z,68.21
2018-03-24T22:12:24.632Z,68.62
2018-03-24T22:14:52.803Z,68.49
2018-03-24T22:17:22.531Z,68.36
2018-03-24T22:19:51.702Z,69.28
2018-03-24T22:22:19.582Z,68.82
2018-03-24T22:24:47.106Z,68.71
2018-03-24T22:27:14.965Z,69.29
2018-03-24T22:29:42.486Z,68.99
2018-03-24T22:32:10.037Z,69.44
2018-03-24T22:34:37.571Z,70.28
2018-03-24T22:37:07.905Z,70.53
2018-03-24T22:39:38.591Z,70.53
2018-03-24T22:42:07.149Z,69.83
2018-03-24T22:44:35.409Z,69.90
2018-03-24T22:47:03.169Z,69.73
2018-03-24T22:49:30.956Z,69.63
2018-03-24T22:51:59.334Z,69.96
2018-03-24T22:54:27.933Z,70.06
2018-03-24T22:56:55.743Z,70.07
2018-03-24T22:59:23.480Z,70.19
2018-03-24T23:01:51.048Z,70.52
2018-03-24T23:04:18.628Z,70.42
2018-03-24T23:06:46.446Z,70.25
2018-03-24T23:09:14.767Z,70.17
2018-03-24T23:11:42.324Z,70.26
2018-03-24T23:14:10.029Z,70.81
2018-03-24T23:16:38.416Z,70.68
2018-03-24T23:19:05.938Z,70.75
2018-03-24T23:21:33.690Z,70.75
2018-03-24T23:24:01.778Z,71.24
2018-03-24T23:26:29.412Z,70.99
2018-03-24T23:28:57.084Z,71.04
2018-03-24T23:31:24.673Z,71.24
2018-03-24T23:33:52.279Z,71.12
2018-03-24T23:36:20.798Z,71.19
2018-03-24T23:38:48.520Z,71.44
2018-03-24T23:41:16.358Z,71.02
2018-03-24T23:43:43.921Z,71.35
2018-03-24T23:46:12.864Z,71.55
2018-03-24T23:48:40.963Z,71.15
2018-03-24T23:51:09.915Z,71.66
2018-03-24T23:53:38.395Z,71.51
2018-03-24T23:56:07.024Z,71.37
2018-03-24T23:58:35.512Z,71.72
